sensor_id;sensor_type;location;lat;lon;timestamp;P1;durP1;ratioP1;P2;durP2;ratioP2
19396;SDS011;9834;48.076;11.878;2022-09-03T00:00:18;1.17;;;1.13;;
19396;SDS011;9834;48.076;11.878;2022-09-03T00:02:49;1.73;;;1.50;;
19396;SDS011;9834;48.076;11.878;2022-09-03T00:05:23;1.80;;;1.70;;
19396;SDS011;9834;48.076;11.878;2022-09-03T00:07:55;1.77;;;1.07;;
19396;SDS011;9834;48.076;11.878;2022-09-03T00:10:28;2.33;;;1.30;;
19396;SDS011;9834;48.076;11.878;2022-09-03T00:13:04;1.57;;;1.37;;
19396;SDS011;9834;48.076;11.878;2022-09-03T00:15:34;1.17;;;1.07;;
19396;SDS011;9834;48.076;11.878;2022-09-03T00:18:05;1.70;;;1.60;;
19396;SDS011;9834;48.076;11.878;2022-09-03T00:20:35;2.97;;;1.27;;
19396;SDS011;9834;48.076;11.878;2022-09-03T00:23:05;1.67;;;1.57;;
19396;SDS011;9834;48.076;11.878;2022-09-03T00:25:36;2.03;;;1.70;;
19396;SDS011;9834;48.076;11.878;2022-09-03T00:28:11;2.07;;;1.87;;
19396;SDS011;9834;48.076;11.878;2022-09-03T00:30:41;1.23;;;1.17;;
19396;SDS011;9834;48.076;11.878;2022-09-03T00:33:11;2.00;;;1.40;;
19396;SDS011;9834;48.076;11.878;2022-09-03T00:35:44;1.33;;;1.30;;
19396;SDS011;9834;48.076;11.878;2022-09-03T00:38:15;1.47;;;1.17;;
19396;SDS011;9834;48.076;11.878;2022-09-03T00:40:48;1.20;;;1.20;;
19396;SDS011;9834;48.076;11.878;2022-09-03T00:43:39;1.93;;;1.80;;
19396;SDS011;9834;48.076;11.878;2022-09-03T00:46:22;1.73;;;1.60;;
19396;SDS011;9834;48.076;11.878;2022-09-03T00:48:58;2.63;;;1.53;;
19396;SDS011;9834;48.076;11.878;2022-09-03T00:51:53;1.60;;;1.50;;
19396;SDS011;9834;48.076;11.878;2022-09-03T00:54:37;1.67;;;1.57;;
19396;SDS011;9834;48.076;11.878;2022-09-03T00:57:17;1.20;;;1.17;;
19396;SDS011;9834;48.076;11.878;2022-09-03T00:59:56;1.50;;;1.40;;
19396;SDS011;9834;48.076;11.878;2022-09-03T01:02:32;0.90;;;0.90;;
19396;SDS011;9834;48.076;11.878;2022-09-03T01:05:12;1.33;;;1.23;;
19396;SDS011;9834;48.076;11.878;2022-09-03T01:07:48;1.37;;;1.27;;
19396;SDS011;9834;48.076;11.878;2022-09-03T01:10:27;1.60;;;1.50;;
19396;SDS011;9834;48.076;11.878;2022-09-03T01:13:04;2.83;;;1.53;;
19396;SDS011;9834;48.076;11.878;2022-09-03T01:15:42;1.63;;;1.53;;
19396;SDS011;9834;48.076;11.878;2022-09-03T01:18:17;1.40;;;1.33;;
19396;SDS011;9834;48.076;11.878;2022-09-03T01:20:53;2.03;;;1.70;;
19396;SDS011;9834;48.076;11.878;2022-09-03T01:23:34;1.50;;;1.33;;
19396;SDS011;9834;48.076;11.878;2022-09-03T01:29:12;1.87;;;1.63;;
19396;SDS011;9834;48.076;11.878;2022-09-03T01:31:45;1.63;;;1.53;;
19396;SDS011;9834;48.076;11.878;2022-09-03T01:34:23;2.33;;;1.83;;
19396;SDS011;9834;48.076;11.878;2022-09-03T01:37:04;4.47;;;2.10;;
19396;SDS011;9834;48.076;11.878;2022-09-03T01:39:42;1.70;;;1.60;;
19396;SDS011;9834;48.076;11.878;2022-09-03T01:42:18;1.90;;;1.77;;
19396;SDS011;9834;48.076;11.878;2022-09-03T01:44:56;1.30;;;1.30;;
19396;SDS011;9834;48.076;11.878;2022-09-03T01:47:48;1.57;;;1.47;;
19396;SDS011;9834;48.076;11.878;2022-09-03T01:50:29;1.90;;;1.80;;
19396;SDS011;9834;48.076;11.878;2022-09-03T01:53:06;2.73;;;1.90;;
19396;SDS011;9834;48.076;11.878;2022-09-03T01:55:43;1.47;;;1.37;;
19396;SDS011;9834;48.076;11.878;2022-09-03T01:58:34;1.70;;;1.60;;
19396;SDS011;9834;48.076;11.878;2022-09-03T02:01:10;1.77;;;1.67;;
19396;SDS011;9834;48.076;11.878;2022-09-03T02:03:42;2.00;;;1.80;;
19396;SDS011;9834;48.076;11.878;2022-09-03T02:06:11;1.47;;;1.37;;
19396;SDS011;9834;48.076;11.878;2022-09-03T02:08:38;2.03;;;1.83;;
19396;SDS011;9834;48.076;11.878;2022-09-03T02:11:07;2.67;;;1.90;;
19396;SDS011;9834;48.076;11.878;2022-09-03T02:13:36;1.67;;;1.57;;
19396;SDS011;9834;48.076;11.878;2022-09-03T02:16:07;3.30;;;1.93;;
19396;SDS011;9834;48.076;11.878;2022-09-03T02:18:40;1.80;;;1.60;;
19396;SDS011;9834;48.076;11.878;2022-09-03T02:21:10;1.87;;;1.63;;
19396;SDS011;9834;48.076;11.878;2022-09-03T02:23:38;1.50;;;1.40;;
19396;SDS011;9834;48.076;11.878;2022-09-03T02:26:06;1.87;;;1.77;;
19396;SDS011;9834;48.076;11.878;2022-09-03T02:28:35;1.80;;;1.70;;
19396;SDS011;9834;48.076;11.878;2022-09-03T02:31:02;1.80;;;1.70;;
19396;SDS011;9834;48.076;11.878;2022-09-03T02:33:31;3.33;;;1.70;;
19396;SDS011;9834;48.076;11.878;2022-09-03T02:36:02;2.53;;;2.13;;
19396;SDS011;9834;48.076;11.878;2022-09-03T02:38:31;2.60;;;1.97;;
19396;SDS011;9834;48.076;11.878;2022-09-03T02:40:58;3.80;;;1.93;;
19396;SDS011;9834;48.076;11.878;2022-09-03T02:43:25;2.43;;;2.30;;
19396;SDS011;9834;48.076;11.878;2022-09-03T02:45:58;3.03;;;1.90;;
19396;SDS011;9834;48.076;11.878;2022-09-03T02:48:27;1.90;;;1.80;;
19396;SDS011;9834;48.076;11.878;2022-09-03T02:50:56;2.43;;;1.83;;
19396;SDS011;9834;48.076;11.878;2022-09-03T02:53:23;4.10;;;2.00;;
19396;SDS011;9834;48.076;11.878;2022-09-03T02:55:52;1.70;;;1.60;;
19396;SDS011;9834;48.076;11.878;2022-09-03T02:58:24;1.70;;;1.60;;
19396;SDS011;9834;48.076;11.878;2022-09-03T03:00:51;1.60;;;1.50;;
19396;SDS011;9834;48.076;11.878;2022-09-03T03:03:18;2.47;;;1.90;;
19396;SDS011;9834;48.076;11.878;2022-09-03T03:05:46;2.30;;;1.83;;
19396;SDS011;9834;48.076;11.878;2022-09-03T03:08:16;3.53;;;2.00;;
19396;SDS011;9834;48.076;11.878;2022-09-03T03:10:45;2.97;;;1.47;;
19396;SDS011;9834;48.076;11.878;2022-09-03T03:13:13;1.83;;;1.73;;
19396;SDS011;9834;48.076;11.878;2022-09-03T03:15:41;2.20;;;2.00;;
19396;SDS011;9834;48.076;11.878;2022-09-03T03:18:08;1.80;;;1.70;;
19396;SDS011;9834;48.076;11.878;2022-09-03T03:20:36;4.23;;;2.27;;
19396;SDS011;9834;48.076;11.878;2022-09-03T03:23:03;2.43;;;2.23;;
19396;SDS011;9834;48.076;11.878;2022-09-03T03:25:32;3.70;;;2.07;;
19396;SDS011;9834;48.076;11.878;2022-09-03T03:28:00;2.00;;;1.80;;
19396;SDS011;9834;48.076;11.878;2022-09-03T03:30:28;1.37;;;1.27;;
19396;SDS011;9834;48.076;11.878;2022-09-03T03:32:55;3.47;;;2.43;;
19396;SDS011;9834;48.076;11.878;2022-09-03T03:35:23;2.03;;;1.93;;
19396;SDS011;9834;48.076;11.878;2022-09-03T03:37:50;2.33;;;2.03;;
19396;SDS011;9834;48.076;11.878;2022-09-03T03:40:17;2.30;;;2.10;;
19396;SDS011;9834;48.076;11.878;2022-09-03T03:42:46;2.30;;;1.73;;
19396;SDS011;9834;48.076;11.878;2022-09-03T03:45:14;3.63;;;2.30;;
19396;SDS011;9834;48.076;11.878;2022-09-03T03:47:41;2.10;;;2.00;;
19396;SDS011;9834;48.076;11.878;2022-09-03T03:50:08;1.97;;;1.80;;
19396;SDS011;9834;48.076;11.878;2022-09-03T03:52:35;2.73;;;2.53;;
19396;SDS011;9834;48.076;11.878;2022-09-03T03:55:02;2.27;;;2.07;;
19396;SDS011;9834;48.076;11.878;2022-09-03T03:57:30;2.73;;;1.97;;
19396;SDS011;9834;48.076;11.878;2022-09-03T03:59:59;2.57;;;2.37;;
19396;SDS011;9834;48.076;11.878;2022-09-03T04:02:26;2.33;;;2.13;;
19396;SDS011;9834;48.076;11.878;2022-09-03T04:04:53;2.70;;;1.97;;
19396;SDS011;9834;48.076;11.878;2022-09-03T04:07:20;2.67;;;2.47;;
19396;SDS011;9834;48.076;11.878;2022-09-03T04:09:47;2.27;;;2.13;;
19396;SDS011;9834;48.076;11.878;2022-09-03T04:12:14;2.67;;;2.47;;
19396;SDS011;9834;48.076;11.878;2022-09-03T04:14:43;2.50;;;2.30;;
19396;SDS011;9834;48.076;11.878;2022-09-03T04:17:11;2.80;;;2.60;;
19396;SDS011;9834;48.076;11.878;2022-09-03T04:19:39;2.37;;;2.17;;
19396;SDS011;9834;48.076;11.878;2022-09-03T04:22:06;3.60;;;2.43;;
19396;SDS011;9834;48.076;11.878;2022-09-03T04:24:32;2.97;;;2.67;;
19396;SDS011;9834;48.076;11.878;2022-09-03T04:27:00;2.50;;;2.30;;
19396;SDS011;9834;48.076;11.878;2022-09-03T04:29:27;2.30;;;2.17;;
19396;SDS011;9834;48.076;11.878;2022-09-03T04:31:55;3.17;;;2.87;;
19396;SDS011;9834;48.076;11.878;2022-09-03T04:34:37;2.73;;;2.53;;
19396;SDS011;9834;48.076;11.878;2022-09-03T04:37:04;2.60;;;2.40;;
19396;SDS011;9834;48.076;11.878;2022-09-03T04:39:31;2.37;;;2.17;;
19396;SDS011;9834;48.076;11.878;2022-09-03T04:41:58;2.67;;;2.40;;
19396;SDS011;9834;48.076;11.878;2022-09-03T04:44:25;2.57;;;2.37;;
19396;SDS011;9834;48.076;11.878;2022-09-03T04:46:52;3.23;;;2.60;;
19396;SDS011;9834;48.076;11.878;2022-09-03T04:49:19;3.50;;;2.80;;
19396;SDS011;9834;48.076;11.878;2022-09-03T04:51:47;2.63;;;2.50;;
19396;SDS011;9834;48.076;11.878;2022-09-03T04:54:14;3.37;;;2.37;;
19396;SDS011;9834;48.076;11.878;2022-09-03T04:56:41;7.83;;;3.07;;
19396;SDS011;9834;48.076;11.878;2022-09-03T04:59:08;3.23;;;2.97;;
19396;SDS011;9834;48.076;11.878;2022-09-03T05:01:36;2.10;;;2.00;;
19396;SDS011;9834;48.076;11.878;2022-09-03T05:04:05;2.60;;;2.40;;
19396;SDS011;9834;48.076;11.878;2022-09-03T05:06:33;2.40;;;2.20;;
19396;SDS011;9834;48.076;11.878;2022-09-03T05:09:03;3.50;;;2.80;;
19396;SDS011;9834;48.076;11.878;2022-09-03T05:11:30;5.63;;;2.97;;
19396;SDS011;9834;48.076;11.878;2022-09-03T05:13:58;5.87;;;2.87;;
19396;SDS011;9834;48.076;11.878;2022-09-03T05:16:25;2.63;;;2.43;;
19396;SDS011;9834;48.076;11.878;2022-09-03T05:18:55;2.40;;;2.17;;
19396;SDS011;9834;48.076;11.878;2022-09-03T05:21:25;2.60;;;2.40;;
19396;SDS011;9834;48.076;11.878;2022-09-03T05:23:52;6.23;;;3.00;;
19396;SDS011;9834;48.076;11.878;2022-09-03T05:26:21;2.50;;;2.30;;
19396;SDS011;9834;48.076;11.878;2022-09-03T05:28:52;2.33;;;2.13;;
19396;SDS011;9834;48.076;11.878;2022-09-03T05:31:20;2.27;;;2.10;;
19396;SDS011;9834;48.076;11.878;2022-09-03T05:33:51;3.43;;;3.13;;
19396;SDS011;9834;48.076;11.878;2022-09-03T05:36:19;3.73;;;2.97;;
19396;SDS011;9834;48.076;11.878;2022-09-03T05:38:48;4.10;;;2.93;;
19396;SDS011;9834;48.076;11.878;2022-09-03T05:41:18;2.53;;;2.33;;
19396;SDS011;9834;48.076;11.878;2022-09-03T05:43:48;2.20;;;2.10;;
19396;SDS011;9834;48.076;11.878;2022-09-03T05:46:20;1.83;;;1.73;;
19396;SDS011;9834;48.076;11.878;2022-09-03T05:48:51;2.43;;;2.23;;
19396;SDS011;9834;48.076;11.878;2022-09-03T05:51:18;1.87;;;1.77;;
19396;SDS011;9834;48.076;11.878;2022-09-03T05:53:46;3.70;;;2.33;;
19396;SDS011;9834;48.076;11.878;2022-09-03T05:56:15;4.13;;;2.37;;
19396;SDS011;9834;48.076;11.878;2022-09-03T05:58:44;2.43;;;2.13;;
19396;SDS011;9834;48.076;11.878;2022-09-03T06:01:13;2.17;;;1.90;;
19396;SDS011;9834;48.076;11.878;2022-09-03T06:03:42;2.13;;;1.83;;
19396;SDS011;9834;48.076;11.878;2022-09-03T06:06:10;4.33;;;2.33;;
19396;SDS011;9834;48.076;11.878;2022-09-03T06:08:38;2.60;;;2.40;;
19396;SDS011;9834;48.076;11.878;2022-09-03T06:11:08;2.60;;;2.40;;
19396;SDS011;9834;48.076;11.878;2022-09-03T06:13:36;2.07;;;1.87;;
19396;SDS011;9834;48.076;11.878;2022-09-03T06:16:05;2.10;;;1.90;;
19396;SDS011;9834;48.076;11.878;2022-09-03T06:18:32;2.47;;;1.83;;
19396;SDS011;9834;48.076;11.878;2022-09-03T06:21:00;2.17;;;1.93;;
19396;SDS011;9834;48.076;11.878;2022-09-03T06:23:29;2.93;;;2.40;;
19396;SDS011;9834;48.076;11.878;2022-09-03T06:26:00;2.37;;;2.17;;
19396;SDS011;9834;48.076;11.878;2022-09-03T06:28:29;2.17;;;1.97;;
19396;SDS011;9834;48.076;11.878;2022-09-03T06:30:57;4.40;;;2.00;;
19396;SDS011;9834;48.076;11.878;2022-09-03T06:33:25;1.67;;;1.47;;
19396;SDS011;9834;48.076;11.878;2022-09-03T06:35:55;2.60;;;2.07;;
19396;SDS011;9834;48.076;11.878;2022-09-03T06:38:23;1.87;;;1.57;;
19396;SDS011;9834;48.076;11.878;2022-09-03T06:40:51;2.20;;;2.00;;
19396;SDS011;9834;48.076;11.878;2022-09-03T06:43:19;2.07;;;1.87;;
19396;SDS011;9834;48.076;11.878;2022-09-03T06:45:53;2.20;;;2.00;;
19396;SDS011;9834;48.076;11.878;2022-09-03T06:48:21;2.17;;;2.07;;
19396;SDS011;9834;48.076;11.878;2022-09-03T06:50:56;1.70;;;1.60;;
19396;SDS011;9834;48.076;11.878;2022-09-03T06:53:24;3.40;;;2.03;;
19396;SDS011;9834;48.076;11.878;2022-09-03T06:55:53;1.37;;;1.37;;
19396;SDS011;9834;48.076;11.878;2022-09-03T06:58:21;2.00;;;1.60;;
19396;SDS011;9834;48.076;11.878;2022-09-03T07:00:48;1.57;;;1.47;;
19396;SDS011;9834;48.076;11.878;2022-09-03T07:03:17;2.30;;;2.10;;
19396;SDS011;9834;48.076;11.878;2022-09-03T07:05:44;1.80;;;1.70;;
19396;SDS011;9834;48.076;11.878;2022-09-03T07:08:13;1.77;;;1.67;;
19396;SDS011;9834;48.076;11.878;2022-09-03T07:10:40;1.63;;;1.43;;
19396;SDS011;9834;48.076;11.878;2022-09-03T07:13:11;6.27;;;1.30;;
19396;SDS011;9834;48.076;11.878;2022-09-03T07:15:38;3.83;;;1.57;;
19396;SDS011;9834;48.076;11.878;2022-09-03T07:18:06;1.00;;;1.00;;
19396;SDS011;9834;48.076;11.878;2022-09-03T07:20:33;7.13;;;2.03;;
19396;SDS011;9834;48.076;11.878;2022-09-03T07:23:00;1.57;;;1.47;;
19396;SDS011;9834;48.076;11.878;2022-09-03T07:25:28;1.73;;;1.53;;
19396;SDS011;9834;48.076;11.878;2022-09-03T07:27:56;7.03;;;2.67;;
19396;SDS011;9834;48.076;11.878;2022-09-03T07:30:24;1.80;;;1.70;;
19396;SDS011;9834;48.076;11.878;2022-09-03T07:32:51;1.77;;;1.67;;
19396;SDS011;9834;48.076;11.878;2022-09-03T07:35:19;3.43;;;1.50;;
19396;SDS011;9834;48.076;11.878;2022-09-03T07:37:49;4.70;;;2.13;;
19396;SDS011;9834;48.076;11.878;2022-09-03T07:40:16;1.80;;;1.70;;
19396;SDS011;9834;48.076;11.878;2022-09-03T07:42:45;1.47;;;1.40;;
19396;SDS011;9834;48.076;11.878;2022-09-03T07:45:13;1.93;;;1.73;;
19396;SDS011;9834;48.076;11.878;2022-09-03T07:47:45;2.47;;;1.77;;
19396;SDS011;9834;48.076;11.878;2022-09-03T07:50:13;1.67;;;1.57;;
19396;SDS011;9834;48.076;11.878;2022-09-03T07:52:41;1.00;;;1.00;;
19396;SDS011;9834;48.076;11.878;2022-09-03T07:55:08;1.67;;;1.57;;
19396;SDS011;9834;48.076;11.878;2022-09-03T07:57:36;1.57;;;1.43;;
19396;SDS011;9834;48.076;11.878;2022-09-03T08:00:05;1.97;;;1.87;;
19396;SDS011;9834;48.076;11.878;2022-09-03T08:02:40;1.87;;;1.77;;
19396;SDS011;9834;48.076;11.878;2022-09-03T08:05:07;4.03;;;1.93;;
19396;SDS011;9834;48.076;11.878;2022-09-03T08:07:34;1.80;;;1.40;;
19396;SDS011;9834;48.076;11.878;2022-09-03T08:10:01;3.53;;;1.93;;
19396;SDS011;9834;48.076;11.878;2022-09-03T08:12:29;2.00;;;1.67;;
19396;SDS011;9834;48.076;11.878;2022-09-03T08:14:56;1.60;;;1.50;;
19396;SDS011;9834;48.076;11.878;2022-09-03T08:17:26;2.70;;;1.50;;
19396;SDS011;9834;48.076;11.878;2022-09-03T08:19:53;2.07;;;1.60;;
19396;SDS011;9834;48.076;11.878;2022-09-03T08:22:21;1.67;;;1.57;;
19396;SDS011;9834;48.076;11.878;2022-09-03T08:24:49;1.80;;;1.70;;
19396;SDS011;9834;48.076;11.878;2022-09-03T08:27:19;1.57;;;1.33;;
19396;SDS011;9834;48.076;11.878;2022-09-03T08:29:50;2.37;;;1.67;;
19396;SDS011;9834;48.076;11.878;2022-09-03T08:32:17;2.33;;;2.03;;
19396;SDS011;9834;48.076;11.878;2022-09-03T08:34:45;11.38;;;2.25;;
19396;SDS011;9834;48.076;11.878;2022-09-03T08:37:12;1.42;;;1.33;;
19396;SDS011;9834;48.076;11.878;2022-09-03T08:39:39;2.83;;;1.90;;
19396;SDS011;9834;48.076;11.878;2022-09-03T08:42:12;5.95;;;1.92;;
19396;SDS011;9834;48.076;11.878;2022-09-03T08:44:52;1.73;;;1.48;;
19396;SDS011;9834;48.076;11.878;2022-09-03T08:47:23;1.20;;;1.13;;
19396;SDS011;9834;48.076;11.878;2022-09-03T08:49:56;1.50;;;1.40;;
19396;SDS011;9834;48.076;11.878;2022-09-03T08:52:28;1.30;;;1.02;;
19396;SDS011;9834;48.076;11.878;2022-09-03T08:55:00;1.17;;;1.13;;
19396;SDS011;9834;48.076;11.878;2022-09-03T08:57:39;1.58;;;1.48;;
19396;SDS011;9834;48.076;11.878;2022-09-03T09:00:10;1.17;;;1.15;;
19396;SDS011;9834;48.076;11.878;2022-09-03T09:02:40;0.90;;;0.90;;
19396;SDS011;9834;48.076;11.878;2022-09-03T09:05:24;1.27;;;1.27;;
19396;SDS011;9834;48.076;11.878;2022-09-03T09:08:05;1.65;;;1.17;;
19396;SDS011;9834;48.076;11.878;2022-09-03T09:10:40;1.23;;;1.13;;
19396;SDS011;9834;48.076;11.878;2022-09-03T09:13:24;1.70;;;1.58;;
19396;SDS011;9834;48.076;11.878;2022-09-03T09:15:59;1.80;;;1.25;;
19396;SDS011;9834;48.076;11.878;2022-09-03T09:18:36;1.08;;;1.02;;
19396;SDS011;9834;48.076;11.878;2022-09-03T09:21:13;1.25;;;1.15;;
19396;SDS011;9834;48.076;11.878;2022-09-03T09:23:45;1.20;;;1.10;;
19396;SDS011;9834;48.076;11.878;2022-09-03T09:26:14;7.68;;;1.10;;
19396;SDS011;9834;48.076;11.878;2022-09-03T09:28:42;1.67;;;1.20;;
19396;SDS011;9834;48.076;11.878;2022-09-03T09:31:13;0.95;;;0.93;;
19396;SDS011;9834;48.076;11.878;2022-09-03T09:33:42;1.27;;;1.23;;
19396;SDS011;9834;48.076;11.878;2022-09-03T09:36:10;0.77;;;0.77;;
19396;SDS011;9834;48.076;11.878;2022-09-03T09:38:43;0.90;;;0.90;;
19396;SDS011;9834;48.076;11.878;2022-09-03T09:41:11;0.93;;;0.93;;
19396;SDS011;9834;48.076;11.878;2022-09-03T09:43:40;1.30;;;1.25;;
19396;SDS011;9834;48.076;11.878;2022-09-03T09:46:08;2.00;;;1.40;;
19396;SDS011;9834;48.076;11.878;2022-09-03T09:48:42;3.00;;;1.00;;
19396;SDS011;9834;48.076;11.878;2022-09-03T09:51:18;0.80;;;0.80;;
19396;SDS011;9834;48.076;11.878;2022-09-03T09:53:47;1.05;;;0.95;;
19396;SDS011;9834;48.076;11.878;2022-09-03T09:56:25;1.05;;;1.05;;
19396;SDS011;9834;48.076;11.878;2022-09-03T09:59:00;2.25;;;1.17;;
19396;SDS011;9834;48.076;11.878;2022-09-03T10:01:29;1.13;;;1.00;;
19396;SDS011;9834;48.076;11.878;2022-09-03T10:03:57;1.17;;;1.02;;
19396;SDS011;9834;48.076;11.878;2022-09-03T10:06:27;1.10;;;1.00;;
19396;SDS011;9834;48.076;11.878;2022-09-03T10:09:14;0.57;;;0.57;;
19396;SDS011;9834;48.076;11.878;2022-09-03T10:11:43;0.73;;;0.73;;
19396;SDS011;9834;48.076;11.878;2022-09-03T10:14:16;0.98;;;0.98;;
19396;SDS011;9834;48.076;11.878;2022-09-03T10:16:49;1.05;;;0.90;;
19396;SDS011;9834;48.076;11.878;2022-09-03T10:19:22;0.82;;;0.82;;
19396;SDS011;9834;48.076;11.878;2022-09-03T10:22:02;1.15;;;1.05;;
19396;SDS011;9834;48.076;11.878;2022-09-03T10:24:37;0.63;;;0.63;;
19396;SDS011;9834;48.076;11.878;2022-09-03T10:27:10;0.88;;;0.88;;
19396;SDS011;9834;48.076;11.878;2022-09-03T10:29:42;0.63;;;0.63;;
19396;SDS011;9834;48.076;11.878;2022-09-03T10:32:13;0.85;;;0.85;;
19396;SDS011;9834;48.076;11.878;2022-09-03T10:34:52;2.20;;;1.20;;
19396;SDS011;9834;48.076;11.878;2022-09-03T10:37:31;1.85;;;0.70;;
19396;SDS011;9834;48.076;11.878;2022-09-03T10:40:08;0.60;;;0.60;;
19396;SDS011;9834;48.076;11.878;2022-09-03T10:42:46;0.70;;;0.70;;
19396;SDS011;9834;48.076;11.878;2022-09-03T10:45:22;1.35;;;1.20;;
19396;SDS011;9834;48.076;11.878;2022-09-03T10:48:06;0.77;;;0.77;;
19396;SDS011;9834;48.076;11.878;2022-09-03T10:50:50;0.80;;;0.80;;
19396;SDS011;9834;48.076;11.878;2022-09-03T10:53:23;0.80;;;0.80;;
19396;SDS011;9834;48.076;11.878;2022-09-03T10:56:05;0.77;;;0.77;;
19396;SDS011;9834;48.076;11.878;2022-09-03T10:58:44;0.90;;;0.90;;
19396;SDS011;9834;48.076;11.878;2022-09-03T11:01:22;2.13;;;1.08;;
19396;SDS011;9834;48.076;11.878;2022-09-03T11:04:00;0.82;;;0.80;;
19396;SDS011;9834;48.076;11.878;2022-09-03T11:06:47;0.65;;;0.65;;
19396;SDS011;9834;48.076;11.878;2022-09-03T11:09:20;1.05;;;1.05;;
19396;SDS011;9834;48.076;11.878;2022-09-03T11:11:52;0.90;;;0.90;;
19396;SDS011;9834;48.076;11.878;2022-09-03T11:14:27;0.90;;;0.90;;
19396;SDS011;9834;48.076;11.878;2022-09-03T11:17:00;0.68;;;0.68;;
19396;SDS011;9834;48.076;11.878;2022-09-03T11:19:32;0.63;;;0.63;;
19396;SDS011;9834;48.076;11.878;2022-09-03T11:22:02;1.45;;;1.35;;
19396;SDS011;9834;48.076;11.878;2022-09-03T11:24:33;1.25;;;1.15;;
19396;SDS011;9834;48.076;11.878;2022-09-03T11:27:04;1.45;;;1.10;;
19396;SDS011;9834;48.076;11.878;2022-09-03T11:29:46;0.95;;;0.90;;
19396;SDS011;9834;48.076;11.878;2022-09-03T11:32:19;5.97;;;1.27;;
19396;SDS011;9834;48.076;11.878;2022-09-03T11:34:49;0.73;;;0.70;;
19396;SDS011;9834;48.076;11.878;2022-09-03T11:37:19;1.08;;;0.75;;
19396;SDS011;9834;48.076;11.878;2022-09-03T11:39:56;0.52;;;0.52;;
19396;SDS011;9834;48.076;11.878;2022-09-03T11:42:29;0.80;;;0.80;;
19396;SDS011;9834;48.076;11.878;2022-09-03T11:44:59;0.70;;;0.70;;
19396;SDS011;9834;48.076;11.878;2022-09-03T11:47:39;0.50;;;0.50;;
19396;SDS011;9834;48.076;11.878;2022-09-03T11:50:15;0.65;;;0.65;;
19396;SDS011;9834;48.076;11.878;2022-09-03T11:52:45;0.82;;;0.82;;
19396;SDS011;9834;48.076;11.878;2022-09-03T11:55:24;0.60;;;0.60;;
19396;SDS011;9834;48.076;11.878;2022-09-03T11:57:54;0.55;;;0.55;;
19396;SDS011;9834;48.076;11.878;2022-09-03T12:00:23;0.90;;;0.90;;
19396;SDS011;9834;48.076;11.878;2022-09-03T12:02:56;0.73;;;0.73;;
19396;SDS011;9834;48.076;11.878;2022-09-03T12:05:29;1.30;;;0.90;;
19396;SDS011;9834;48.076;11.878;2022-09-03T12:08:20;0.80;;;0.80;;
19396;SDS011;9834;48.076;11.878;2022-09-03T12:11:08;1.13;;;1.02;;
19396;SDS011;9834;48.076;11.878;2022-09-03T12:13:49;0.93;;;0.77;;
19396;SDS011;9834;48.076;11.878;2022-09-03T12:19:23;0.82;;;0.80;;
19396;SDS011;9834;48.076;11.878;2022-09-03T12:21:56;0.88;;;0.85;;
19396;SDS011;9834;48.076;11.878;2022-09-03T12:24:25;0.70;;;0.70;;
19396;SDS011;9834;48.076;11.878;2022-09-03T12:26:59;1.88;;;0.98;;
19396;SDS011;9834;48.076;11.878;2022-09-03T12:29:28;0.63;;;0.63;;
19396;SDS011;9834;48.076;11.878;2022-09-03T12:32:04;0.68;;;0.68;;
19396;SDS011;9834;48.076;11.878;2022-09-03T12:34:32;0.70;;;0.70;;
19396;SDS011;9834;48.076;11.878;2022-09-03T12:36:59;1.08;;;0.95;;
19396;SDS011;9834;48.076;11.878;2022-09-03T12:39:27;0.85;;;0.85;;
19396;SDS011;9834;48.076;11.878;2022-09-03T12:41:59;0.93;;;0.85;;
19396;SDS011;9834;48.076;11.878;2022-09-03T12:44:28;1.15;;;0.90;;
19396;SDS011;9834;48.076;11.878;2022-09-03T12:47:00;0.75;;;0.75;;
19396;SDS011;9834;48.076;11.878;2022-09-03T12:49:32;1.20;;;1.10;;
19396;SDS011;9834;48.076;11.878;2022-09-03T12:52:11;0.57;;;0.57;;
19396;SDS011;9834;48.076;11.878;2022-09-03T12:54:47;0.57;;;0.57;;
19396;SDS011;9834;48.076;11.878;2022-09-03T12:57:26;0.52;;;0.52;;
19396;SDS011;9834;48.076;11.878;2022-09-03T12:59:59;1.65;;;1.13;;
19396;SDS011;9834;48.076;11.878;2022-09-03T13:02:35;0.80;;;0.80;;
19396;SDS011;9834;48.076;11.878;2022-09-03T13:05:05;0.90;;;0.88;;
19396;SDS011;9834;48.076;11.878;2022-09-03T13:07:37;0.90;;;0.90;;
19396;SDS011;9834;48.076;11.878;2022-09-03T13:10:05;0.75;;;0.75;;
19396;SDS011;9834;48.076;11.878;2022-09-03T13:12:45;1.27;;;1.10;;
19396;SDS011;9834;48.076;11.878;2022-09-03T13:15:16;0.90;;;0.85;;
19396;SDS011;9834;48.076;11.878;2022-09-03T13:17:56;1.02;;;0.90;;
19396;SDS011;9834;48.076;11.878;2022-09-03T13:20:47;0.90;;;0.90;;
19396;SDS011;9834;48.076;11.878;2022-09-03T13:23:31;0.57;;;0.57;;
19396;SDS011;9834;48.076;11.878;2022-09-03T13:26:08;0.90;;;0.90;;
19396;SDS011;9834;48.076;11.878;2022-09-03T13:28:53;0.93;;;0.93;;
19396;SDS011;9834;48.076;11.878;2022-09-03T13:31:37;1.00;;;1.00;;
19396;SDS011;9834;48.076;11.878;2022-09-03T13:34:12;1.38;;;0.90;;
19396;SDS011;9834;48.076;11.878;2022-09-03T13:36:44;0.88;;;0.88;;
19396;SDS011;9834;48.076;11.878;2022-09-03T13:39:19;1.42;;;1.13;;
19396;SDS011;9834;48.076;11.878;2022-09-03T13:41:53;0.88;;;0.88;;
19396;SDS011;9834;48.076;11.878;2022-09-03T13:44:39;0.75;;;0.75;;
19396;SDS011;9834;48.076;11.878;2022-09-03T13:47:11;0.80;;;0.80;;
19396;SDS011;9834;48.076;11.878;2022-09-03T13:49:48;0.90;;;0.90;;
19396;SDS011;9834;48.076;11.878;2022-09-03T13:52:39;0.80;;;0.80;;
19396;SDS011;9834;48.076;11.878;2022-09-03T13:55:13;0.88;;;0.88;;
19396;SDS011;9834;48.076;11.878;2022-09-03T13:57:45;0.82;;;0.82;;
19396;SDS011;9834;48.076;11.878;2022-09-03T14:00:23;1.35;;;0.93;;
19396;SDS011;9834;48.076;11.878;2022-09-03T14:02:57;4.53;;;1.00;;
19396;SDS011;9834;48.076;11.878;2022-09-03T14:05:35;0.80;;;0.80;;
19396;SDS011;9834;48.076;11.878;2022-09-03T14:08:22;0.93;;;0.93;;
19396;SDS011;9834;48.076;11.878;2022-09-03T14:10:55;0.70;;;0.60;;
19396;SDS011;9834;48.076;11.878;2022-09-03T14:13:41;1.02;;;0.90;;
19396;SDS011;9834;48.076;11.878;2022-09-03T14:16:23;0.80;;;0.80;;
19396;SDS011;9834;48.076;11.878;2022-09-03T14:18:57;0.52;;;0.52;;
19396;SDS011;9834;48.076;11.878;2022-09-03T14:21:32;0.90;;;0.85;;
19396;SDS011;9834;48.076;11.878;2022-09-03T14:24:09;1.35;;;1.17;;
19396;SDS011;9834;48.076;11.878;2022-09-03T14:26:49;1.10;;;1.00;;
19396;SDS011;9834;48.076;11.878;2022-09-03T14:29:22;1.08;;;0.95;;
19396;SDS011;9834;48.076;11.878;2022-09-03T14:32:04;1.30;;;1.17;;
19396;SDS011;9834;48.076;11.878;2022-09-03T14:34:45;3.53;;;1.33;;
19396;SDS011;9834;48.076;11.878;2022-09-03T14:37:38;1.20;;;1.10;;
19396;SDS011;9834;48.076;11.878;2022-09-03T14:40:31;0.68;;;0.68;;
19396;SDS011;9834;48.076;11.878;2022-09-03T14:43:17;2.25;;;1.10;;
19396;SDS011;9834;48.076;11.878;2022-09-03T14:45:59;0.90;;;0.90;;
19396;SDS011;9834;48.076;11.878;2022-09-03T14:48:49;2.72;;;0.90;;
19396;SDS011;9834;48.076;11.878;2022-09-03T14:51:37;1.65;;;1.15;;
19396;SDS011;9834;48.076;11.878;2022-09-03T14:54:24;1.17;;;1.08;;
19396;SDS011;9834;48.076;11.878;2022-09-03T14:57:01;1.42;;;1.05;;
19396;SDS011;9834;48.076;11.878;2022-09-03T14:59:48;1.38;;;1.38;;
19396;SDS011;9834;48.076;11.878;2022-09-03T15:06:03;3.27;;;0.70;;
19396;SDS011;9834;48.076;11.878;2022-09-03T15:08:42;1.60;;;0.70;;
19396;SDS011;9834;48.076;11.878;2022-09-03T15:11:20;2.83;;;1.13;;
19396;SDS011;9834;48.076;11.878;2022-09-03T15:13:50;0.70;;;0.70;;
19396;SDS011;9834;48.076;11.878;2022-09-03T15:16:23;0.70;;;0.70;;
19396;SDS011;9834;48.076;11.878;2022-09-03T15:19:03;7.03;;;1.13;;
19396;SDS011;9834;48.076;11.878;2022-09-03T15:21:42;1.57;;;1.20;;
19396;SDS011;9834;48.076;11.878;2022-09-03T15:24:20;1.50;;;1.40;;
19396;SDS011;9834;48.076;11.878;2022-09-03T15:27:01;1.80;;;1.20;;
19396;SDS011;9834;48.076;11.878;2022-09-03T15:29:44;1.27;;;1.17;;